Time;durP1;ratioP1;P1;durP2;ratioP2;P2;SDS_P1;SDS_P2;PMS_P1;PMS_P2;Temp;Humidity;BMP_temperature;BMP_pressure;BME280_temperature;BME280_humidity;BME280_pressure;Samples;Min_cycle;Max_cycle;Signal;HPM_P1;HPM_P2
2023/03/25 00:02:07;;;;;;;24.90;4.35;;;10.10;99.90;;;;;;6210364;23;20012;-57
2023/03/25 00:04:34;;;;;;;21.45;3.58;;;10.10;99.90;;;;;;6208580;23;20013;-57
2023/03/25 00:07:03;;;;;;;20.98;4.43;;;10.10;99.90;;;;;;6210521;23;20016;-58
2023/03/25 00:09:29;;;;;;;25.23;4.72;;;10.10;99.90;;;;;;6207906;23;20020;-56
2023/03/25 00:11:55;;;;;;;29.13;4.63;;;10.10;99.90;;;;;;6210193;23;20013;-58
2023/03/25 00:14:21;;;;;;;23.77;4.53;;;10.10;99.90;;;;;;6210641;23;20050;-57
2023/03/25 00:16:47;;;;;;;19.73;4.22;;;10.10;99.90;;;;;;6209910;23;20052;-56
2023/03/25 00:19:20;;;;;;;25.15;4.43;;;10.10;99.90;;;;;;6210199;23;20481;-57
2023/03/25 00:21:51;;;;;;;26.65;4.75;;;10.10;99.90;;;;;;6209393;23;20013;-58
2023/03/25 00:24:17;;;;;;;25.92;4.40;;;10.00;99.90;;;;;;6211214;23;20016;-56
2023/03/25 00:26:47;;;;;;;31.58;5.10;;;10.10;99.90;;;;;;6209354;23;20016;-57
2023/03/25 00:29:14;;;;;;;23.75;4.70;;;10.00;99.90;;;;;;6208575;23;20496;-58
2023/03/25 00:31:43;;;;;;;28.98;5.93;;;10.00;99.90;;;;;;6209501;23;20451;-58
2023/03/25 00:34:08;;;;;;;24.58;4.38;;;10.00;99.90;;;;;;6210478;23;20016;-58
2023/03/25 00:36:36;;;;;;;21.40;5.57;;;10.00;99.90;;;;;;6208865;23;20016;-57
2023/03/25 00:39:04;;;;;;;36.40;6.47;;;10.00;99.90;;;;;;6209301;23;20012;-57
2023/03/25 00:41:30;;;;;;;21.85;4.70;;;10.00;99.90;;;;;;6210334;23;20792;-58
2023/03/25 00:43:58;;;;;;;25.23;4.53;;;10.00;99.90;;;;;;6210862;23;20028;-58
2023/03/25 00:46:26;;;;;;;29.42;5.45;;;10.00;99.90;;;;;;6209839;23;20013;-57
2023/03/25 00:48:52;;;;;;;30.40;4.80;;;10.00;99.90;;;;;;6210491;23;20031;-58
2023/03/25 00:51:20;;;;;;;30.33;5.82;;;10.00;99.90;;;;;;6209332;23;20470;-58
2023/03/25 00:53:59;;;;;;;31.38;5.45;;;9.90;99.90;;;;;;6208360;23;20012;-57
2023/03/25 00:56:25;;;;;;;27.08;4.88;;;9.90;99.90;;;;;;6203196;23;20024;-58
2023/03/25 00:58:50;;;;;;;33.33;5.82;;;9.80;99.90;;;;;;6207980;23;20107;-57
2023/03/25 01:01:22;;;;;;;28.27;4.80;;;9.80;99.90;;;;;;6208780;23;20016;-56
2023/03/25 01:03:56;;;;;;;25.33;5.05;;;9.80;99.90;;;;;;6209321;23;20047;-58
2023/03/25 01:06:27;;;;;;;31.58;4.60;;;9.80;99.90;;;;;;6210061;23;20040;-57
2023/03/25 01:08:56;;;;;;;35.13;5.80;;;9.80;99.90;;;;;;6209231;23;20015;-58
2023/03/25 01:11:25;;;;;;;25.17;4.55;;;9.80;99.90;;;;;;6208945;23;20015;-57
2023/03/25 01:13:53;;;;;;;19.17;4.05;;;9.80;99.90;;;;;;6209568;23;20019;-58
2023/03/25 01:16:18;;;;;;;22.42;4.38;;;9.70;99.90;;;;;;6180719;23;20018;-57
2023/03/25 01:18:44;;;;;;;33.97;5.40;;;9.70;99.90;;;;;;6207812;23;20357;-58
2023/03/25 01:21:10;;;;;;;21.80;4.53;;;9.70;99.90;;;;;;6209036;23;20020;-58
2023/03/25 01:23:35;;;;;;;28.95;5.30;;;9.70;99.90;;;;;;6209639;23;20017;-57
2023/03/25 01:26:01;;;;;;;32.88;5.93;;;9.70;99.90;;;;;;6207745;23;20051;-57
2023/03/25 01:28:27;;;;;;;29.90;5.00;;;9.70;99.90;;;;;;6231356;23;20483;-57
2023/03/25 01:31:05;;;;;;;24.42;4.82;;;9.70;99.90;;;;;;6208673;23;20032;-57
2023/03/25 01:33:31;;;;;;;35.53;5.20;;;9.70;99.90;;;;;;6206984;23;20257;-58
2023/03/25 01:35:58;;;;;;;30.48;6.07;;;9.70;99.90;;;;;;6208389;23;20115;-58
2023/03/25 01:38:25;;;;;;;28.60;5.32;;;9.70;99.90;;;;;;6207888;23;20074;-57
2023/03/25 01:40:52;;;;;;;31.58;5.53;;;9.70;99.90;;;;;;6208423;23;20021;-58
2023/03/25 01:43:19;;;;;;;30.23;4.82;;;9.70;99.90;;;;;;6208797;23;20040;-56
2023/03/25 01:45:45;;;;;;;35.30;6.25;;;9.70;99.90;;;;;;6208608;23;20009;-57
2023/03/25 01:48:35;;;;;;;30.42;5.68;;;9.60;99.90;;;;;;6206158;23;20357;-56
2023/03/25 01:51:25;;;;;;;32.33;5.45;;;9.70;99.90;;;;;;6207995;23;20016;-56
2023/03/25 01:53:52;;;;;;;24.58;4.70;;;9.70;99.90;;;;;;6208905;23;20027;-58
2023/03/25 01:56:22;;;;;;;30.23;5.50;;;9.70;99.90;;;;;;6204440;23;20016;-58
2023/03/25 01:58:51;;;;;;;34.28;5.55;;;9.70;99.90;;;;;;6180384;23;20020;-58
2023/03/25 02:01:20;;;;;;;42.13;5.25;;;9.70;99.90;;;;;;6205864;23;20017;-58
2023/03/25 02:03:51;;;;;;;26.50;5.80;;;9.70;99.90;;;;;;6208753;23;20071;-58
2023/03/25 02:06:42;;;;;;;30.25;5.40;;;9.70;99.90;;;;;;6207960;23;20016;-57
2023/03/25 02:09:10;;;;;;;29.20;5.55;;;9.70;99.90;;;;;;6207343;23;20047;-58
2023/03/25 02:11:38;;;;;;;27.13;5.15;;;9.60;99.90;;;;;;6208344;23;20009;-58
2023/03/25 02:14:07;;;;;;;43.75;6.43;;;9.70;99.90;;;;;;6208257;23;20016;-58
2023/03/25 02:16:49;;;;;;;37.72;5.93;;;9.60;99.90;;;;;;6206418;23;20074;-58
2023/03/25 02:19:39;;;;;;;39.70;8.55;;;9.60;99.90;;;;;;6206843;23;20350;-58
2023/03/25 02:22:40;;;;;;;27.83;5.57;;;9.60;99.90;;;;;;6179172;23;20454;-57
2023/03/25 02:25:44;;;;;;;33.88;5.85;;;9.60;99.90;;;;;;6208456;23;20012;-58
2023/03/25 02:28:35;;;;;;;33.77;5.73;;;9.60;99.90;;;;;;6207915;23;20019;-58
2023/03/25 02:31:12;;;;;;;35.80;6.03;;;9.60;99.90;;;;;;6208434;23;20259;-58
2023/03/25 02:34:09;;;;;;;31.67;6.35;;;9.50;99.90;;;;;;6208727;23;20477;-56
2023/03/25 02:37:00;;;;;;;39.83;8.40;;;9.50;99.90;;;;;;6205575;23;20472;-57
2023/03/25 02:39:36;;;;;;;37.25;6.45;;;9.50;99.90;;;;;;6208340;23;20434;-57
2023/03/25 02:42:33;;;;;;;38.33;8.23;;;9.50;99.90;;;;;;6207949;23;20088;-58
2023/03/25 02:45:10;;;;;;;28.55;5.70;;;9.50;99.90;;;;;;6206620;23;20052;-58
2023/03/25 02:47:45;;;;;;;31.67;5.40;;;9.60;99.90;;;;;;6208012;23;20355;-58
2023/03/25 02:50:20;;;;;;;30.75;5.82;;;9.50;99.90;;;;;;6208025;23;20024;-58
2023/03/25 02:52:50;;;;;;;30.40;7.07;;;9.60;99.90;;;;;;6206573;23;20382;-56
2023/03/25 02:55:18;;;;;;;31.02;6.00;;;9.50;99.90;;;;;;6207819;23;20012;-58
2023/03/25 02:57:48;;;;;;;31.92;6.28;;;9.50;99.90;;;;;;6206498;23;20086;-57
2023/03/25 03:00:19;;;;;;;31.60;6.70;;;9.60;99.90;;;;;;6205461;23;20058;-57
2023/03/25 03:02:58;;;;;;;31.25;5.20;;;9.50;99.90;;;;;;6204459;23;20025;-57
2023/03/25 03:05:45;;;;;;;24.60;6.30;;;9.50;99.90;;;;;;6204558;23;20048;-57
2023/03/25 03:08:17;;;;;;;24.77;4.75;;;9.60;99.90;;;;;;6204983;23;20023;-57
2023/03/25 03:11:11;;;;;;;32.22;5.88;;;9.60;99.90;;;;;;6207130;23;20020;-58
2023/03/25 03:14:03;;;;;;;36.65;6.63;;;9.60;99.90;;;;;;6208257;23;20646;-58
2023/03/25 03:16:47;;;;;;;27.75;5.60;;;9.60;99.90;;;;;;6207722;23;20009;-58
2023/03/25 03:19:22;;;;;;;;;;;9.60;99.90;;;;;;6210134;23;20012;-57
2023/03/25 03:22:20;;;;;;;24.98;4.18;;;9.60;99.90;;;;;;6183614;23;19995;-58
2023/03/25 03:24:51;;;;;;;32.10;4.97;;;9.60;99.90;;;;;;6176367;23;20022;-57
2023/03/25 03:27:25;;;;;;;31.30;5.90;;;9.60;99.90;;;;;;6206947;23;20028;-57
2023/03/25 03:29:57;;;;;;;25.77;4.85;;;9.60;99.90;;;;;;6210404;23;20070;-58
2023/03/25 03:32:24;;;;;;;35.35;5.57;;;9.60;99.90;;;;;;6207849;23;20056;-58
2023/03/25 03:35:13;;;;;;;31.98;5.50;;;9.60;99.90;;;;;;6208531;23;20024;-58
2023/03/25 03:37:47;;;;;;;31.48;4.95;;;9.60;99.90;;;;;;6209742;23;20023;-58
2023/03/25 03:40:17;;;;;;;36.67;6.63;;;9.60;99.90;;;;;;6209986;23;20020;-58
2023/03/25 03:42:59;;;;;;;31.30;5.60;;;9.60;99.90;;;;;;6210471;23;20016;-57
2023/03/25 03:45:35;;;;;;;28.40;5.80;;;9.60;99.90;;;;;;6208511;23;20017;-58
2023/03/25 03:48:07;;;;;;;24.48;5.22;;;9.60;99.90;;;;;;6208883;23;20513;-58
2023/03/25 03:50:41;;;;;;;30.42;5.72;;;9.80;99.90;;;;;;6209228;23;20009;-57
2023/03/25 03:53:25;;;;;;;33.33;5.45;;;9.60;99.90;;;;;;6183647;23;20012;-57
2023/03/25 03:56:20;;;;;;;24.00;4.90;;;9.60;99.90;;;;;;6208380;23;20394;-58
2023/03/25 03:58:49;;;;;;;23.15;5.03;;;9.60;99.90;;;;;;6161243;23;20048;-58
2023/03/25 04:01:29;;;;;;;30.42;5.95;;;9.60;99.90;;;;;;6183482;23;20017;-57
2023/03/25 04:04:02;;;;;;;32.22;5.10;;;9.60;99.90;;;;;;6210458;23;20023;-58
2023/03/25 04:06:40;;;;;;;34.50;5.63;;;9.60;99.90;;;;;;6184226;23;20017;-58
2023/03/25 04:09:18;;;;;;;26.23;5.75;;;9.60;99.90;;;;;;6207092;23;20013;-58
2023/03/25 04:11:59;;;;;;;31.65;6.63;;;9.60;99.90;;;;;;6210503;23;20020;-58
2023/03/25 04:14:25;;;;;;;25.05;4.80;;;9.60;99.90;;;;;;6209300;23;20008;-58
2023/03/25 04:16:51;;;;;;;27.90;6.20;;;9.60;99.90;;;;;;6209814;23;20021;-58
2023/03/25 04:19:18;;;;;;;32.13;5.47;;;9.60;99.90;;;;;;6210144;23;20024;-58
2023/03/25 04:21:47;;;;;;;29.67;5.88;;;9.60;99.90;;;;;;6208743;23;20021;-58
2023/03/25 04:24:15;;;;;;;26.30;5.53;;;9.60;99.90;;;;;;6210443;23;20040;-58
2023/03/25 04:26:44;;;;;;;28.33;6.22;;;9.60;99.90;;;;;;6210608;23;20005;-57
2023/03/25 04:29:12;;;;;;;31.65;6.18;;;9.60;99.90;;;;;;6207999;23;20019;-58
2023/03/25 04:31:45;;;;;;;39.03;5.90;;;9.60;99.90;;;;;;6210403;23;20342;-57
2023/03/25 04:34:15;;;;;;;36.95;7.95;;;9.60;99.90;;;;;;6211006;23;20012;-57
2023/03/25 04:36:45;;;;;;;41.28;7.93;;;9.60;99.90;;;;;;6206604;23;20078;-58
2023/03/25 04:39:11;;;;;;;28.75;6.18;;;9.60;99.90;;;;;;6208974;23;20021;-58
2023/03/25 04:41:38;;;;;;;28.90;5.45;;;9.60;99.90;;;;;;6206348;23;20043;-58
2023/03/25 04:44:06;;;;;;;34.45;5.55;;;9.60;99.90;;;;;;6209766;23;20079;-57
2023/03/25 04:46:33;;;;;;;29.58;6.93;;;9.60;99.90;;;;;;6208299;23;20020;-58
2023/03/25 04:49:02;;;;;;;28.70;5.68;;;9.60;99.90;;;;;;6208753;23;20027;-58
2023/03/25 04:51:29;;;;;;;34.17;6.82;;;9.50;99.90;;;;;;6207608;23;20024;-58
2023/03/25 04:53:54;;;;;;;35.75;6.55;;;9.60;99.90;;;;;;6210873;23;20017;-58
2023/03/25 04:56:23;;;;;;;29.50;4.72;;;9.50;99.90;;;;;;6210494;23;20043;-57
2023/03/25 04:58:49;;;;;;;27.30;5.20;;;9.50;99.90;;;;;;6183118;23;20020;-58
2023/03/25 05:01:29;;;;;;;27.60;5.82;;;9.40;99.90;;;;;;6210126;23;20142;-56
2023/03/25 05:04:03;;;;;;;28.10;5.45;;;9.50;99.90;;;;;;6208335;23;20066;-58
2023/03/25 05:06:33;;;;;;;29.95;5.55;;;9.40;99.90;;;;;;6210215;23;20016;-58
2023/03/25 05:09:00;;;;;;;31.83;6.13;;;9.40;99.90;;;;;;6208109;23;20550;-58
2023/03/25 05:11:27;;;;;;;31.83;6.40;;;9.40;99.90;;;;;;6208774;23;20012;-58
2023/03/25 05:13:54;;;;;;;31.40;6.40;;;9.40;99.90;;;;;;6210354;23;20017;-57
2023/03/25 05:16:19;;;;;;;37.70;6.38;;;9.40;99.90;;;;;;6209556;23;20054;-58
2023/03/25 05:18:45;;;;;;;32.35;6.20;;;9.40;99.90;;;;;;6208681;23;20020;-57
2023/03/25 05:21:11;;;;;;;41.30;6.50;;;9.40;99.90;;;;;;6208440;23;20103;-57
2023/03/25 05:23:40;;;;;;;32.60;6.00;;;9.30;99.90;;;;;;6209590;23;20063;-57
2023/03/25 05:26:07;;;;;;;36.53;6.40;;;9.40;99.90;;;;;;6210228;23;20020;-57
2023/03/25 05:28:34;;;;;;;32.95;5.45;;;9.30;99.90;;;;;;6207844;23;20020;-58
2023/03/25 05:31:07;;;;;;;33.28;5.68;;;9.30;99.90;;;;;;6208430;23;20020;-58
2023/03/25 05:33:42;;;;;;;31.50;6.65;;;9.30;99.90;;;;;;6208010;23;20039;-57
2023/03/25 05:36:12;;;;;;;36.92;6.10;;;9.40;99.90;;;;;;6210083;23;20051;-58
2023/03/25 05:38:45;;;;;;;28.33;6.00;;;9.30;99.90;;;;;;6208809;23;20324;-58
2023/03/25 05:41:17;;;;;;;35.47;6.22;;;9.40;99.90;;;;;;6207173;23;20021;-58
2023/03/25 05:43:46;;;;;;;34.80;5.75;;;9.40;99.90;;;;;;6209320;23;20083;-58
2023/03/25 05:46:13;;;;;;;36.47;7.55;;;9.40;99.90;;;;;;6208797;23;20017;-57
2023/03/25 05:48:40;;;;;;;29.60;5.90;;;9.40;99.90;;;;;;6206439;23;20039;-58
2023/03/25 05:51:17;;;;;;;31.45;5.80;;;9.40;99.90;;;;;;6210435;23;20017;-58
2023/03/25 05:53:44;;;;;;;32.20;6.03;;;9.40;99.90;;;;;;6209919;23;20024;-58
2023/03/25 05:56:12;;;;;;;35.53;6.97;;;9.40;99.90;;;;;;6210133;23;20108;-58
2023/03/25 05:58:38;;;;;;;30.42;5.05;;;9.40;99.90;;;;;;6209698;23;20450;-57
2023/03/25 06:01:04;;;;;;;35.92;6.55;;;9.40;99.90;;;;;;6206793;23;20019;-57
2023/03/25 06:03:33;;;;;;;28.42;5.50;;;9.40;99.90;;;;;;6209466;23;20082;-57
2023/03/25 06:06:00;;;;;;;38.97;6.28;;;9.40;99.90;;;;;;6209373;23;20217;-58
2023/03/25 06:08:28;;;;;;;29.38;5.47;;;9.40;99.90;;;;;;6206095;23;20017;-56
2023/03/25 06:10:57;;;;;;;31.58;6.53;;;9.40;99.90;;;;;;6208866;23;20027;-58
2023/03/25 06:13:23;;;;;;;28.60;4.75;;;9.40;99.90;;;;;;6209531;23;20353;-57
2023/03/25 06:15:54;;;;;;;35.33;5.60;;;9.40;99.90;;;;;;6209208;23;20088;-58
2023/03/25 06:18:23;;;;;;;26.52;5.30;;;9.40;99.90;;;;;;6209654;23;20075;-58
2023/03/25 06:20:56;;;;;;;29.60;4.68;;;9.40;99.90;;;;;;6206129;23;20028;-58
2023/03/25 06:23:23;;;;;;;19.27;4.23;;;9.40;99.90;;;;;;6209654;23;20019;-58
2023/03/25 06:25:50;;;;;;;28.52;4.78;;;9.40;99.90;;;;;;6209054;23;20232;-57
2023/03/25 06:28:17;;;;;;;23.58;4.82;;;9.40;99.90;;;;;;6209310;23;20515;-57
2023/03/25 06:30:44;;;;;;;28.85;5.15;;;9.40;99.90;;;;;;6208147;23;20103;-57
2023/03/25 06:33:12;;;;;;;21.77;3.90;;;9.50;99.90;;;;;;6207288;23;20100;-57
2023/03/25 06:35:41;;;;;;;18.92;4.47;;;9.40;99.90;;;;;;6206537;23;20017;-58
2023/03/25 06:38:09;;;;;;;28.58;3.90;;;9.50;99.90;;;;;;6208217;23;20473;-56
2023/03/25 06:40:39;;;;;;;25.30;5.22;;;9.50;99.90;;;;;;6207335;23;20024;-56
2023/03/25 06:43:05;;;;;;;29.55;5.90;;;9.40;99.90;;;;;;6207190;23;20021;-57
2023/03/25 06:45:32;;;;;;;22.80;4.35;;;9.50;99.90;;;;;;6206671;23;20013;-57
2023/03/25 06:47:59;;;;;;;27.48;5.43;;;9.50;99.90;;;;;;6206923;23;20497;-57
2023/03/25 06:50:26;;;;;;;23.45;4.55;;;9.50;99.90;;;;;;6208966;23;20043;-56
2023/03/25 06:52:51;;;;;;;25.65;5.32;;;9.50;99.90;;;;;;6208788;23;20013;-57
2023/03/25 06:55:17;;;;;;;27.50;5.25;;;9.50;99.90;;;;;;6207885;23;20431;-58
2023/03/25 06:57:43;;;;;;;20.48;3.92;;;9.50;99.90;;;;;;6181762;23;20026;-57
2023/03/25 07:00:10;;;;;;;28.48;4.63;;;9.40;99.90;;;;;;6209382;23;20023;-56
2023/03/25 07:02:40;;;;;;;18.80;4.22;;;9.40;99.90;;;;;;6207163;23;20020;-58
2023/03/25 07:05:06;;;;;;;15.27;4.05;;;9.30;99.90;;;;;;6209654;23;20087;-57
2023/03/25 07:07:32;;;;;;;19.73;3.28;;;9.30;99.90;;;;;;6207460;23;20012;-58
2023/03/25 07:09:58;;;;;;;16.80;4.00;;;9.30;99.90;;;;;;6206286;23;20023;-56
2023/03/25 07:12:24;;;;;;;28.33;3.90;;;9.30;99.90;;;;;;6207862;23;20433;-57
2023/03/25 07:14:54;;;;;;;26.77;4.63;;;9.30;99.90;;;;;;6210303;23;20024;-58
2023/03/25 07:17:20;;;;;;;15.20;3.22;;;9.30;99.90;;;;;;6182691;23;20439;-58
2023/03/25 07:19:46;;;;;;;16.48;3.58;;;9.30;99.90;;;;;;6207882;23;20027;-58
2023/03/25 07:22:11;;;;;;;31.08;4.47;;;9.30;99.90;;;;;;6207647;23;20379;-58
2023/03/25 07:24:37;;;;;;;24.27;4.57;;;9.30;99.90;;;;;;6209039;23;20019;-58
2023/03/25 07:27:03;;;;;;;16.05;3.83;;;9.30;99.90;;;;;;6182510;23;20087;-58
2023/03/25 07:29:29;;;;;;;25.27;4.57;;;9.40;99.90;;;;;;6204273;23;20017;-58
2023/03/25 07:31:55;;;;;;;21.10;3.42;;;9.40;99.90;;;;;;6208701;23;20016;-58
2023/03/25 07:34:20;;;;;;;16.17;3.17;;;9.30;99.90;;;;;;6209772;23;20059;-58
2023/03/25 07:36:46;;;;;;;16.23;2.88;;;9.30;99.90;;;;;;6206908;23;20416;-56
2023/03/25 07:39:12;;;;;;;27.85;4.43;;;9.30;99.90;;;;;;6207418;23;20309;-55
2023/03/25 07:41:37;;;;;;;15.73;3.20;;;9.30;99.90;;;;;;6207899;23;20202;-56
2023/03/25 07:44:03;;;;;;;23.98;3.33;;;9.30;99.90;;;;;;6206903;23;20466;-57
2023/03/25 07:46:29;;;;;;;13.65;2.90;;;9.20;99.90;;;;;;6208852;23;20031;-58
2023/03/25 07:48:55;;;;;;;26.70;4.20;;;9.20;99.90;;;;;;6205982;23;20013;-57
2023/03/25 07:51:21;;;;;;;20.88;3.17;;;9.20;99.90;;;;;;6204076;23;20027;-57
2023/03/25 07:53:47;;;;;;;21.40;3.88;;;9.10;99.90;;;;;;6208644;23;20040;-58
2023/03/25 07:56:13;;;;;;;17.45;3.35;;;9.10;99.90;;;;;;6208178;23;20013;-57
2023/03/25 07:58:39;;;;;;;24.98;4.68;;;9.10;99.90;;;;;;6206779;23;20044;-58
2023/03/25 08:01:05;;;;;;;24.48;3.97;;;9.10;99.90;;;;;;6206598;23;20008;-58
2023/03/25 08:03:32;;;;;;;25.83;4.40;;;9.10;99.90;;;;;;6206817;23;20051;-58
2023/03/25 08:06:01;;;;;;;19.88;3.92;;;9.10;99.90;;;;;;6211226;23;20500;-58
2023/03/25 08:08:30;;;;;;;22.38;3.47;;;9.20;99.90;;;;;;6210221;23;20013;-58
2023/03/25 08:10:56;;;;;;;19.38;4.00;;;9.20;99.90;;;;;;6210843;23;20012;-57
2023/03/25 08:13:25;;;;;;;17.05;3.78;;;9.20;99.90;;;;;;6209854;23;20393;-58
2023/03/25 08:15:51;;;;;;;26.17;5.03;;;9.20;99.90;;;;;;6209025;23;20048;-58
2023/03/25 08:18:17;;;;;;;20.65;3.83;;;9.30;99.90;;;;;;6209475;23;20013;-58
2023/03/25 08:20:43;;;;;;;21.83;3.78;;;9.40;99.90;;;;;;6210045;23;20063;-58
2023/03/25 08:23:18;;;;;;;20.20;3.72;;;9.50;99.90;;;;;;6233825;23;20346;-58
2023/03/25 08:25:47;;;;;;;21.95;3.67;;;9.60;99.90;;;;;;6208913;23;20012;-56
2023/03/25 08:28:21;;;;;;;26.90;4.55;;;9.60;99.90;;;;;;6208736;23;20025;-57
2023/03/25 08:30:48;;;;;;;;;;;9.60;99.90;;;;;;6211073;23;20031;-58
2023/03/25 08:33:15;;;;;;;18.92;3.50;;;9.60;99.90;;;;;;6208679;23;19973;-58
2023/03/25 08:35:44;;;;;;;31.13;4.43;;;9.70;99.90;;;;;;6208716;23;20017;-58
2023/03/25 08:38:11;;;;;;;23.08;3.83;;;9.80;99.90;;;;;;6210416;23;20024;-57
2023/03/25 08:40:36;;;;;;;25.45;3.50;;;9.90;99.90;;;;;;6210016;23;20017;-58
2023/03/25 08:43:06;;;;;;;23.95;4.63;;;10.00;99.90;;;;;;6210713;23;20016;-58
2023/03/25 08:45:33;;;;;;;15.43;3.05;;;10.10;99.90;;;;;;6207951;23;20124;-58
2023/03/25 08:48:03;;;;;;;24.13;4.25;;;10.10;99.90;;;;;;6210223;23;20671;-57
2023/03/25 08:50:29;;;;;;;18.33;4.38;;;10.10;99.90;;;;;;6210338;23;20024;-58
2023/03/25 08:52:57;;;;;;;19.75;3.45;;;10.20;99.90;;;;;;6209474;23;20052;-58
2023/03/25 08:55:23;;;;;;;24.52;3.28;;;10.10;99.90;;;;;;6209653;23;20016;-58
2023/03/25 08:57:49;;;;;;;13.88;3.08;;;10.10;99.90;;;;;;6208401;23;20382;-58
2023/03/25 09:00:16;;;;;;;19.45;3.85;;;10.10;99.90;;;;;;6210031;23;20017;-57
2023/03/25 09:02:42;;;;;;;26.40;4.25;;;10.20;99.90;;;;;;6208295;23;20013;-58
2023/03/25 09:05:09;;;;;;;21.83;4.35;;;10.30;99.90;;;;;;6233301;23;20021;-58
2023/03/25 09:07:38;;;;;;;24.63;3.85;;;10.30;99.90;;;;;;6210183;23;20457;-58
2023/03/25 09:10:06;;;;;;;15.40;3.78;;;10.30;99.90;;;;;;6207915;23;20017;-58
2023/03/25 09:12:32;;;;;;;16.00;4.15;;;10.40;99.90;;;;;;6209543;23;20071;-58
2023/03/25 09:14:58;;;;;;;20.05;3.92;;;10.40;99.90;;;;;;6207888;23;20016;-57
2023/03/25 09:17:24;;;;;;;18.50;3.80;;;10.40;99.90;;;;;;6210428;23;20012;-57
2023/03/25 09:19:50;;;;;;;24.77;4.07;;;10.30;99.90;;;;;;6209284;23;20043;-57
2023/03/25 09:22:16;;;;;;;16.65;3.35;;;10.30;99.90;;;;;;6208502;23;20012;-57
2023/03/25 09:24:41;;;;;;;16.88;4.18;;;10.30;99.90;;;;;;6209928;23;20028;-58
2023/03/25 09:27:07;;;;;;;16.40;3.30;;;10.30;99.90;;;;;;6210136;23;20020;-58
2023/03/25 09:29:36;;;;;;;16.95;3.28;;;10.30;99.90;;;;;;6209900;23;20008;-58
2023/03/25 09:32:02;;;;;;;18.25;3.53;;;10.30;99.90;;;;;;6208150;23;20104;-58
2023/03/25 09:34:28;;;;;;;13.82;3.45;;;10.30;99.90;;;;;;6210422;23;20617;-59
2023/03/25 09:36:55;;;;;;;21.27;4.40;;;10.20;99.90;;;;;;6207633;23;20024;-58
2023/03/25 09:39:21;;;;;;;19.95;4.03;;;10.20;99.90;;;;;;6209315;23;20016;-58
2023/03/25 09:42:24;;;;;;;19.02;3.10;;;10.20;99.90;;;;;;6206733;23;20012;-58
2023/03/25 09:45:04;;;;;;;16.55;3.13;;;10.20;99.90;;;;;;6209580;23;20028;-58
2023/03/25 09:47:32;;;;;;;18.15;3.67;;;10.20;99.90;;;;;;6210641;23;20048;-58
2023/03/25 09:50:01;;;;;;;29.23;3.78;;;10.20;99.90;;;;;;6209653;23;20044;-58
2023/03/25 09:52:49;;;;;;;30.75;4.85;;;10.20;99.90;;;;;;6209727;23;20091;-57
2023/03/25 09:55:24;;;;;;;18.77;3.50;;;10.30;99.90;;;;;;6207617;23;20450;-57
2023/03/25 09:57:55;;;;;;;21.17;3.58;;;10.30;99.90;;;;;;6207993;23;20062;-57
2023/03/25 10:00:25;;;;;;;23.50;4.15;;;10.30;99.90;;;;;;6206038;23;20017;-58
2023/03/25 10:03:13;;;;;;;17.13;4.32;;;10.40;99.90;;;;;;6209369;23;20009;-58
2023/03/25 10:05:58;;;;;;;23.23;3.75;;;10.40;99.90;;;;;;6207536;23;20028;-58
2023/03/25 10:08:42;;;;;;;18.58;3.83;;;10.40;99.90;;;;;;6208165;23;20023;-60
2023/03/25 10:11:21;;;;;;;18.67;4.57;;;10.40;99.90;;;;;;6209401;23;20021;-57
2023/03/25 10:14:13;;;;;;;20.65;3.88;;;10.50;99.90;;;;;;6208242;23;20043;-59
2023/03/25 10:16:54;;;;;;;23.00;3.55;;;10.60;99.90;;;;;;6206892;23;20016;-59
2023/03/25 10:19:29;;;;;;;19.63;3.92;;;10.60;99.90;;;;;;6206461;23;20024;-59
2023/03/25 10:22:10;;;;;;;21.02;4.95;;;10.60;99.90;;;;;;6206666;23;20008;-59
2023/03/25 10:24:49;;;;;;;20.65;3.67;;;10.80;99.90;;;;;;6208567;23;20013;-58
2023/03/25 10:27:25;;;;;;;21.73;4.05;;;10.80;99.90;;;;;;6206813;23;20454;-56
2023/03/25 10:30:17;;;;;;;18.85;3.83;;;10.70;99.90;;;;;;6208400;23;20024;-59
2023/03/25 10:32:57;;;;;;;23.50;3.97;;;10.90;99.90;;;;;;6206859;23;20035;-60
2023/03/25 10:35:28;;;;;;;23.23;4.18;;;10.90;99.90;;;;;;6205827;23;20017;-57
2023/03/25 10:38:19;;;;;;;17.52;4.07;;;11.00;99.90;;;;;;6206576;23;20017;-59
2023/03/25 10:40:51;;;;;;;18.70;3.63;;;10.90;99.90;;;;;;6206722;23;20020;-57
2023/03/25 10:43:33;;;;;;;18.40;4.72;;;11.00;99.90;;;;;;6206741;23;20017;-59
2023/03/25 10:46:20;;;;;;;17.23;3.95;;;11.00;99.90;;;;;;6208280;23;20055;-59
2023/03/25 10:48:47;;;;;;;22.15;4.07;;;11.20;99.90;;;;;;6207141;23;20419;-59
2023/03/25 10:51:16;;;;;;;19.95;3.63;;;11.30;99.90;;;;;;6207314;23;20078;-57
2023/03/25 10:53:48;;;;;;;17.83;3.55;;;11.50;99.90;;;;;;6206826;23;20021;-59
2023/03/25 10:56:24;;;;;;;15.77;3.70;;;11.60;99.90;;;;;;6206751;23;20021;-61
2023/03/25 10:58:55;;;;;;;11.50;3.70;;;11.60;99.90;;;;;;6205926;23;20438;-59
2023/03/25 11:01:37;;;;;;;15.50;3.70;;;11.50;99.90;;;;;;6180282;23;20021;-59
2023/03/25 11:04:09;;;;;;;17.38;3.10;;;11.60;99.90;;;;;;6205601;23;20055;-62
2023/03/25 11:06:40;;;;;;;13.25;2.85;;;11.50;99.90;;;;;;6208513;23;20456;-59
2023/03/25 11:09:35;;;;;;;15.43;3.10;;;11.50;99.90;;;;;;6206143;23;20019;-60
2023/03/25 11:12:05;;;;;;;19.30;4.43;;;11.60;99.90;;;;;;6205394;23;20092;-63
2023/03/25 11:14:37;;;;;;;17.80;3.53;;;11.70;99.90;;;;;;6207900;23;20470;-56
2023/03/25 11:17:10;;;;;;;23.05;4.10;;;11.70;99.90;;;;;;6181248;23;20027;-58
2023/03/25 11:19:40;;;;;;;18.57;3.20;;;11.60;99.90;;;;;;6207914;23;20322;-61
2023/03/25 11:22:17;;;;;;;16.35;3.50;;;11.60;99.90;;;;;;6206676;23;20019;-61
2023/03/25 11:24:47;;;;;;;22.60;4.03;;;11.60;99.90;;;;;;6208378;23;20458;-59
2023/03/25 11:27:22;;;;;;;16.60;3.95;;;11.50;99.90;;;;;;6209371;23;20013;-58
2023/03/25 11:30:04;;;;;;;17.48;4.03;;;11.50;99.90;;;;;;6208179;23;20151;-61
2023/03/25 11:32:32;;;;;;;13.73;2.70;;;11.40;99.90;;;;;;6206306;23;20357;-60
2023/03/25 11:35:04;;;;;;;16.73;3.17;;;11.30;99.90;;;;;;6205480;23;20012;-61
2023/03/25 11:37:31;;;;;;;14.38;3.58;;;11.40;99.90;;;;;;6208862;23;20333;-59
2023/03/25 11:40:05;;;;;;;15.40;2.80;;;11.40;99.90;;;;;;6232732;23;20051;-61
2023/03/25 11:42:37;;;;;;;13.73;3.40;;;11.40;99.90;;;;;;6207372;23;20345;-63
2023/03/25 11:45:04;;;;;;;20.42;3.35;;;11.40;99.90;;;;;;6207908;23;20019;-59
2023/03/25 11:47:39;;;;;;;11.55;3.13;;;11.50;99.90;;;;;;6208847;23;20537;-57
2023/03/25 11:50:06;;;;;;;16.00;2.67;;;11.50;99.90;;;;;;6183589;23;20204;-61
2023/03/25 11:52:45;;;;;;;17.02;3.08;;;11.80;99.90;;;;;;6184025;23;20095;-63
2023/03/25 11:55:18;;;;;;;12.65;2.75;;;11.70;99.90;;;;;;6183659;23;20461;-60
2023/03/25 11:57:45;;;;;;;15.38;3.35;;;11.70;99.90;;;;;;6210723;23;20009;-58
2023/03/25 12:00:30;;;;;;;16.85;3.90;;;11.70;99.90;;;;;;6208213;23;20012;-58
2023/03/25 12:03:03;;;;;;;18.58;3.75;;;11.70;99.90;;;;;;6208913;23;20023;-59
2023/03/25 12:05:29;;;;;;;17.20;3.47;;;11.60;99.90;;;;;;6209612;23;20050;-60
2023/03/25 12:08:14;;;;;;;18.98;3.70;;;11.60;99.90;;;;;;6208705;23;20016;-59
2023/03/25 12:10:46;;;;;;;14.50;2.72;;;11.80;99.90;;;;;;6210375;23;20082;-62
2023/03/25 12:13:33;;;;;;;18.05;3.20;;;11.80;99.90;;;;;;6208741;23;20111;-60
2023/03/25 12:16:21;;;;;;;15.35;3.10;;;11.90;99.90;;;;;;6207718;23;20024;-59
2023/03/25 12:18:53;;;;;;;10.02;2.53;;;12.00;99.90;;;;;;6209736;23;20013;-59
2023/03/25 12:21:22;;;;;;;12.38;2.95;;;11.70;99.90;;;;;;6210580;23;20074;-59
2023/03/25 12:24:36;;;;;;;15.30;2.80;;;11.70;99.90;;;;;;6208326;23;20068;-59
2023/03/25 12:27:23;;;;;;;15.18;2.65;;;11.60;99.90;;;;;;6210335;23;20040;-57
2023/03/25 12:30:11;;;;;;;12.32;3.08;;;11.40;99.90;;;;;;6207390;23;20017;-61
2023/03/25 12:33:15;;;;;;;10.50;2.38;;;11.20;99.90;;;;;;6208862;23;20023;-60
2023/03/25 12:36:04;;;;;;;14.60;2.50;;;11.20;99.90;;;;;;6208099;23;20020;-58
2023/03/25 12:38:48;;;;;;;14.27;2.90;;;11.20;99.90;;;;;;6209362;23;20024;-63
2023/03/25 12:41:24;;;;;;;;;;;11.10;99.90;;;;;;6209574;23;20012;-61
2023/03/25 12:44:12;;;;;;;14.60;2.75;;;11.10;99.90;;;;;;6208571;23;19920;-60
2023/03/25 12:47:02;;;;;;;14.68;3.30;;;11.00;99.90;;;;;;6208513;23;20012;-61
2023/03/25 12:49:58;;;;;;;13.82;3.08;;;10.90;99.90;;;;;;6208277;23;20016;-60
2023/03/25 12:52:27;;;;;;;14.38;4.72;;;10.90;99.90;;;;;;6209194;23;20016;-59
2023/03/25 12:55:20;;;;;;;19.73;3.53;;;10.80;99.90;;;;;;6183304;23;20016;-59
2023/03/25 12:58:05;;;;;;;17.95;4.03;;;10.70;99.90;;;;;;6208240;23;20337;-60
2023/03/25 13:00:58;;;;;;;17.38;2.92;;;10.60;99.90;;;;;;6209963;23;20013;-61
2023/03/25 13:03:42;;;;;;;20.73;2.83;;;10.50;99.90;;;;;;6210129;23;20502;-57
2023/03/25 13:06:14;;;;;;;14.60;3.22;;;10.50;99.90;;;;;;6210003;23;20031;-57
2023/03/25 13:09:04;;;;;;;16.95;2.83;;;10.50;99.90;;;;;;6207329;23;20016;-58
2023/03/25 13:11:57;;;;;;;14.18;2.25;;;10.40;99.90;;;;;;6182512;23;20488;-61